Bolton, North Carolina
Current Conditions -  °F | °C
As of 6:55 PM on Sunday 21 Dec 2014 (Local Time) from KCPC Reporting Station
Drizzle Drizzle  
Wind Chill: 45°   Ceiling: 3100
Heat Index: 48°   Visibility: 10mi
Dew Point: 38°   Wind: 6mph
Humidity: 70%   Direction: 40°NE
Pressure: 30.2"   Gusts: NA
Location:  34.32°N, 78.4°W
Report Text: KCPC 212355Z AUTO 04005KT 10SM -DZ OVC031 09/04 A3020 RMK AO2 T00880036 10115 20088
Loading
Personal Weather Stations






























Interactive Weather Map New forecast layout! Learn more

10-Day Weather Forecast

Advertisements
Track Severe Weather on mobile